Time;durP1;ratioP1;P1;durP2;ratioP2;P2;SDS_P1;SDS_P2;PMS_P1;PMS_P2;Temp;Humidity;BMP_temperature;BMP_pressure;BME280_temperature;BME280_humidity;BME280_pressure;Samples;Min_cycle;Max_cycle;Signal;HPM_P1;HPM_P2
2023/09/02 00:01:05;;;;;;;0.63;0.20;;;;;;;17.78;73.98;100461.06;10286187;28;20124;-70
2023/09/02 00:06:07;;;;;;;0.55;0.30;;;;;;;17.65;74.28;100459.25;10290839;28;20050;-69
2023/09/02 00:11:08;;;;;;;2.00;0.20;;;;;;;17.42;75.04;100457.97;10292589;28;20062;-69
2023/09/02 00:16:10;;;;;;;1.05;0.20;;;;;;;17.48;74.93;100458.16;10282990;28;20084;-69
2023/09/02 00:21:12;;;;;;;0.85;0.40;;;;;;;17.48;74.63;100458.16;10286428;28;20101;-68
2023/09/02 00:26:14;;;;;;;2.05;0.35;;;;;;;17.43;74.69;100456.91;10281849;28;20355;-67
2023/09/02 00:31:15;;;;;;;0.98;0.38;;;;;;;17.37;74.77;100474.06;10300834;28;20121;-68
2023/09/02 00:36:17;;;;;;;0.50;0.30;;;;;;;17.37;74.68;100478.69;10288931;28;20255;-68
2023/09/02 00:41:25;;;;;;;0.65;0.20;;;;;;;17.33;74.60;100466.59;10286481;28;20114;-69
2023/09/02 00:46:27;;;;;;;2.83;0.50;;;;;;;17.28;74.41;100475.41;10291226;28;20063;-70
2023/09/02 00:51:29;;;;;;;5.40;0.88;;;;;;;17.22;74.68;100468.13;10288069;28;20059;-69
2023/09/02 00:56:32;;;;;;;0.80;0.40;;;;;;;17.18;74.50;100469.56;10288232;28;20062;-68
2023/09/02 01:01:35;;;;;;;0.55;0.30;;;;;;;17.12;74.51;100468.59;10287127;28;20548;-70
2023/09/02 01:06:37;;;;;;;2.75;0.40;;;;;;;17.04;74.86;100474.25;10285796;28;20401;-70
2023/09/02 01:11:38;;;;;;;0.80;0.50;;;;;;;17.00;74.51;100483.88;10284913;28;20126;-69
2023/09/02 01:16:40;;;;;;;0.35;0.30;;;;;;;16.96;74.79;100488.91;10287952;28;20114;-70
2023/09/02 01:22:00;;;;;;;3.97;0.50;;;;;;;16.90;75.02;100495.19;10285680;28;20062;-70
2023/09/02 01:27:21;;;;;;;1.67;0.30;;;;;;;16.86;74.84;100493.94;10287591;28;20047;-69
2023/09/02 01:32:27;;;;;;;0.57;0.30;;;;;;;16.83;74.76;100503.38;10285334;28;20078;-69
2023/09/02 01:37:29;;;;;;;2.67;0.20;;;;;;;16.79;74.85;100514.84;10286558;28;20035;-69
2023/09/02 01:42:31;;;;;;;1.92;0.40;;;;;;;16.55;75.22;100511.75;10287867;28;20109;-69
2023/09/02 01:47:34;;;;;;;0.60;0.32;;;;;;;16.60;75.34;100520.09;10288341;28;20070;-69
2023/09/02 01:52:36;;;;;;;1.55;0.40;;;;;;;16.59;75.10;100525.75;10280182;28;20039;-68
2023/09/02 01:57:39;;;;;;;2.42;0.40;;;;;;;16.59;75.10;100525.75;10287948;28;20125;-69
2023/09/02 02:02:44;;;;;;;3.35;0.40;;;;;;;16.58;75.09;100524.06;10286256;28;20656;-68
2023/09/02 02:07:53;;;;;;;3.10;0.60;;;;;;;16.57;75.01;100519.69;10285790;28;20058;-69
2023/09/02 02:12:55;;;;;;;2.25;0.40;;;;;;;16.57;75.29;100515.09;10287214;28;20110;-68
2023/09/02 02:17:56;;;;;;;1.13;0.40;;;;;;;16.52;74.94;100524.91;10287645;28;20147;-69
2023/09/02 02:22:57;;;;;;;1.05;0.50;;;;;;;16.43;75.46;100532.44;10280239;28;20069;-69
2023/09/02 02:27:59;;;;;;;1.23;0.52;;;;;;;16.44;75.39;100529.50;10285265;28;20114;-69
2023/09/02 02:33:01;;;;;;;2.20;0.43;;;;;;;16.40;75.17;100532.84;10284488;28;20085;-69
2023/09/02 02:38:03;;;;;;;1.00;0.43;;;;;;;16.39;75.15;100537.44;10282347;28;20106;-69
2023/09/02 02:43:05;;;;;;;3.22;0.63;;;;;;;16.30;75.23;100543.28;10279466;28;20113;-69
2023/09/02 02:48:11;;;;;;;0.80;0.50;;;;;;;16.35;75.29;100538.91;10283111;28;20213;-68
2023/09/02 02:53:12;;;;;;;2.30;0.50;;;;;;;16.33;74.99;100542.84;10283566;28;20047;-69
2023/09/02 02:58:15;;;;;;;3.22;0.65;;;;;;;16.24;75.50;100550.38;10302480;28;20035;-70
2023/09/02 03:03:20;;;;;;;1.10;0.60;;;;;;;16.25;75.47;100549.31;10285029;28;20054;-68
2023/09/02 03:08:22;;;;;;;2.78;0.55;;;;;;;16.26;75.00;100554.56;10288961;28;20053;-69
2023/09/02 03:13:24;;;;;;;1.05;0.55;;;;;;;16.23;75.19;100560.41;10280263;28;20106;-69
2023/09/02 03:18:26;;;;;;;1.98;0.60;;;;;;;16.26;75.19;100564.56;10283444;28;20209;-70
2023/09/02 03:23:27;;;;;;;2.03;0.63;;;;;;;16.31;75.28;100564.78;10280750;28;20132;-71
2023/09/02 03:28:28;;;;;;;0.90;0.50;;;;;;;16.28;75.69;100569.78;10278040;28;20043;-67
2023/09/02 03:33:30;;;;;;;3.40;1.13;;;;;;;16.29;75.85;100574.16;10286439;28;20365;-69
2023/09/02 03:38:31;;;;;;;6.90;0.88;;;;;;;16.41;75.74;100570.63;10282375;28;20039;-68
2023/09/02 03:43:33;;;;;;;1.98;0.50;;;;;;;16.50;75.87;100584.00;10284721;28;20058;-70
2023/09/02 03:48:34;;;;;;;0.85;0.50;;;;;;;16.57;75.84;100574.81;10281312;28;20042;-69
2023/09/02 03:53:37;;;;;;;0.80;0.52;;;;;;;16.62;75.75;100582.31;10284936;28;20055;-69
2023/09/02 03:58:39;;;;;;;1.35;0.40;;;;;;;16.53;75.98;100594.41;10283389;28;20069;-70
2023/09/02 04:03:40;;;;;;;1.45;0.50;;;;;;;16.56;76.24;100600.25;10280910;28;20339;-69
2023/09/02 04:08:42;;;;;;;0.88;0.50;;;;;;;16.68;76.11;100599.63;10279728;28;20046;-69
2023/09/02 04:13:43;;;;;;;4.05;0.80;;;;;;;16.78;75.83;100591.88;10281804;28;20047;-69
2023/09/02 04:18:45;;;;;;;2.95;0.52;;;;;;;16.88;75.75;100588.78;10286963;28;20031;-68
2023/09/02 04:23:46;;;;;;;2.10;0.77;;;;;;;16.89;75.67;100587.75;10290705;28;20078;-69
2023/09/02 04:28:49;;;;;;;4.80;0.70;;;;;;;16.90;75.87;100592.94;10287925;28;20109;-70
2023/09/02 04:33:50;;;;;;;0.93;0.50;;;;;;;16.90;75.79;100601.09;10291349;28;20138;-69
2023/09/02 04:38:51;;;;;;;3.90;0.43;;;;;;;16.91;75.73;100607.38;10287266;28;20114;-68
2023/09/02 04:43:53;;;;;;;1.98;0.40;;;;;;;16.80;76.18;100596.06;10290644;28;20661;-68
2023/09/02 04:48:54;;;;;;;5.63;0.70;;;;;;;16.98;75.82;100600.88;10287815;28;20072;-69
2023/09/02 04:53:55;;;;;;;0.70;0.50;;;;;;;16.97;75.90;100598.38;10289208;28;20051;-69
2023/09/02 04:58:57;;;;;;;2.35;0.70;;;;;;;17.05;75.73;100596.25;10287680;28;20381;-70
2023/09/02 05:03:58;;;;;;;3.45;1.00;;;;;;;17.07;75.77;100611.53;10285046;28;20330;-68
2023/09/02 05:09:00;;;;;;;3.17;1.02;;;;;;;17.07;76.10;100625.09;10286239;28;20109;-69
2023/09/02 05:14:01;;;;;;;3.33;0.80;;;;;;;17.29;75.75;100617.53;10282107;28;20104;-67
2023/09/02 05:19:03;;;;;;;1.08;0.80;;;;;;;17.34;75.78;100615.84;10285625;28;20048;-67
2023/09/02 05:24:04;;;;;;;1.70;0.50;;;;;;;17.38;75.88;100614.34;10285768;28;20110;-69
2023/09/02 05:29:06;;;;;;;3.92;0.90;;;;;;;17.51;75.44;100620.78;10286366;28;20065;-68
2023/09/02 05:34:07;;;;;;;2.00;0.60;;;;;;;17.64;75.42;100626.19;10287115;28;20046;-68
2023/09/02 05:39:10;;;;;;;2.95;0.50;;;;;;;17.56;75.75;100613.66;10286904;28;20123;-68
2023/09/02 05:44:12;;;;;;;4.10;0.80;;;;;;;17.67;75.82;100614.03;10292960;28;20086;-68
2023/09/02 05:49:14;;;;;;;1.92;0.70;;;;;;;17.90;75.38;100618.97;10291265;28;20042;-69
2023/09/02 05:54:15;;;;;;;2.05;0.70;;;;;;;18.01;75.25;100629.16;10290046;28;20141;-68
2023/09/02 05:59:17;;;;;;;2.60;0.90;;;;;;;18.02;75.26;100628.09;10287729;28;20062;-69
2023/09/02 06:04:18;;;;;;;2.90;1.00;;;;;;;18.15;75.16;100633.47;10288851;28;20057;-70
2023/09/02 06:09:19;;;;;;;3.20;0.80;;;;;;;18.32;74.76;100644.63;10284250;28;20054;-68
2023/09/02 06:14:21;;;;;;;4.10;0.60;;;;;;;18.39;75.08;100636.44;10284152;28;20347;-69
2023/09/02 06:19:22;;;;;;;1.48;0.70;;;;;;;18.37;75.36;100646.72;10285076;28;20081;-68
2023/09/02 06:24:24;;;;;;;2.45;0.70;;;;;;;18.61;74.99;100642.34;10284809;28;20347;-68
2023/09/02 06:29:25;;;;;;;2.85;0.80;;;;;;;18.83;74.91;100640.91;10280451;28;20078;-70
2023/09/02 06:34:29;;;;;;;2.00;1.05;;;;;;;19.05;74.47;100645.13;10280795;28;20047;-69
2023/09/02 06:39:31;;;;;;;4.07;1.20;;;;;;;19.22;74.45;100648.94;10290197;28;20058;-68
2023/09/02 06:44:32;;;;;;;2.08;1.00;;;;;;;19.38;74.25;100656.50;10278520;28;20054;-69
2023/09/02 06:49:34;;;;;;;1.88;1.17;;;;;;;19.57;74.13;100646.44;10280270;28;20045;-70
2023/09/02 06:54:35;;;;;;;2.10;1.27;;;;;;;19.77;74.06;100650.84;10283230;28;20106;-69
2023/09/02 06:59:37;;;;;;;5.53;1.08;;;;;;;19.85;73.78;100656.00;10283825;28;20340;-69
2023/09/02 07:04:38;;;;;;;2.78;1.55;;;;;;;19.97;73.56;100670.50;10280371;28;20410;-69
2023/09/02 07:09:40;;;;;;;2.65;1.08;;;;;;;20.11;73.42;100686.72;10281214;28;20063;-69
2023/09/02 07:14:41;;;;;;;2.58;1.48;;;;;;;20.23;73.00;100686.78;10278473;28;20051;-69
2023/09/02 07:19:42;;;;;;;3.35;1.63;;;;;;;20.28;72.87;100693.19;10282728;28;20070;-68
2023/09/02 07:24:44;;;;;;;2.05;1.30;;;;;;;20.36;72.56;100697.50;10281705;28;20113;-68
2023/09/02 07:29:47;;;;;;;2.88;1.60;;;;;;;20.44;71.84;100699.91;10282755;28;20110;-68
2023/09/02 07:34:48;;;;;;;1.80;1.05;;;;;;;20.46;72.20;100713.31;10289868;28;20047;-68
2023/09/02 07:39:50;;;;;;;3.92;1.33;;;;;;;20.41;71.32;100711.28;10287162;28;20126;-69
2023/09/02 07:44:51;;;;;;;1.92;1.13;;;;;;;20.31;71.83;100720.03;10287462;28;20085;-69
2023/09/02 07:49:54;;;;;;;2.22;1.13;;;;;;;20.27;71.72;100740.66;10285315;28;20073;-69
2023/09/02 07:54:55;;;;;;;5.30;1.95;;;;;;;20.52;71.02;100736.97;10290824;28;20063;-69
2023/09/02 07:59:57;;;;;;;3.20;1.95;;;;;;;20.62;71.00;100741.88;10288919;28;20045;-69
2023/09/02 08:04:58;;;;;;;3.97;1.92;;;;;;;20.34;71.24;100754.22;10289494;28;20073;-69
2023/09/02 08:10:00;;;;;;;3.10;2.00;;;;;;;20.35;71.42;100759.44;10298409;28;20114;-70
2023/09/02 08:15:01;;;;;;;2.13;1.75;;;;;;;20.37;71.41;100760.06;10291349;28;20082;-69
2023/09/02 08:20:04;;;;;;;3.20;1.65;;;;;;;20.29;71.35;100760.38;10302247;28;20098;-68
2023/09/02 08:25:06;;;;;;;1.65;1.48;;;;;;;20.21;70.82;100757.97;10286907;28;20415;-68
2023/09/02 08:30:08;;;;;;;3.50;1.10;;;;;;;20.43;70.67;100757.47;10283508;28;20043;-69
2023/09/02 08:35:12;;;;;;;2.92;1.30;;;;;;;20.72;70.08;100762.13;10292341;28;20344;-68
2023/09/02 08:40:14;;;;;;;1.48;0.90;;;;;;;21.03;69.96;100759.31;10289400;28;20046;-68
2023/09/02 08:45:21;;;;;;;1.45;1.00;;;;;;;21.36;69.45;100777.91;10286794;28;20347;-67
2023/09/02 08:50:26;;;;;;;2.67;0.98;;;;;;;21.47;69.11;100774.38;10286174;28;20247;-67
2023/09/02 08:55:31;;;;;;;1.35;1.10;;;;;;;21.38;68.81;100760.19;10284156;28;20051;-67
2023/09/02 09:00:34;;;;;;;1.40;0.80;;;;;;;21.56;68.31;100762.03;10284639;28;20061;-69
2023/09/02 09:05:39;;;;;;;2.35;0.90;;;;;;;21.83;68.29;100756.03;10294125;28;20043;-69
2023/09/02 09:10:42;;;;;;;1.95;0.70;;;;;;;22.10;67.96;100764.53;10285153;28;20054;-69
2023/09/02 09:15:45;;;;;;;2.63;0.93;;;;;;;22.34;67.51;100773.53;10290820;28;20058;-68
2023/09/02 09:20:47;;;;;;;1.27;0.63;;;;;;;22.50;67.30;100774.66;10290706;28;20130;-69
2023/09/02 09:25:52;;;;;;;1.48;1.00;;;;;;;22.76;66.58;100773.22;10282989;28;20122;-70
2023/09/02 09:30:53;;;;;;;1.23;0.50;;;;;;;22.92;66.74;100762.53;10292454;28;20051;-69
2023/09/02 09:36:09;;;;;;;1.10;0.68;;;;;;;22.97;66.25;100770.84;10286319;28;20058;-68
2023/09/02 09:41:11;;;;;;;2.43;0.57;;;;;;;23.07;66.19;100789.44;10285312;28;20122;-68
2023/09/02 09:46:17;;;;;;;0.77;0.60;;;;;;;23.17;65.51;100782.19;10287848;28;20118;-68
2023/09/02 09:51:25;;;;;;;0.70;0.57;;;;;;;23.25;65.35;100783.69;10286897;28;20066;-70
2023/09/02 09:56:26;;;;;;;1.35;0.50;;;;;;;23.24;65.59;100787.50;10284074;28;20061;-69
2023/09/02 10:01:28;;;;;;;2.15;0.80;;;;;;;23.32;65.19;100794.47;10290236;28;20130;-68
2023/09/02 10:06:29;;;;;;;4.95;0.70;;;;;;;23.29;65.31;100792.25;10286806;28;20109;-68
2023/09/02 10:11:31;;;;;;;2.25;0.82;;;;;;;23.39;65.07;100789.66;10286329;28;20050;-69
2023/09/02 10:16:34;;;;;;;2.25;0.50;;;;;;;23.49;64.39;100789.00;10276301;28;20059;-69
2023/09/02 10:21:39;;;;;;;0.60;0.50;;;;;;;23.65;65.14;100795.53;10301527;28;20088;-67
2023/09/02 10:26:47;;;;;;;2.95;0.50;;;;;;;23.75;64.61;100792.94;10292339;28;20097;-69
2023/09/02 10:31:52;;;;;;;1.95;1.13;;;;;;;24.17;63.34;100788.84;10294654;28;20106;-68
2023/09/02 10:36:57;;;;;;;0.50;0.40;;;;;;;24.49;62.24;100789.78;10287659;28;20113;-69
2023/09/02 10:42:00;;;;;;;1.13;0.30;;;;;;;24.99;62.62;100784.25;10282079;28;20072;-70
2023/09/02 10:47:02;;;;;;;0.30;0.30;;;;;;;25.29;60.94;100773.50;10288269;28;20043;-69
2023/09/02 10:52:05;;;;;;;0.40;0.25;;;;;;;25.79;60.97;100773.28;10285419;28;20050;-69
2023/09/02 10:57:13;;;;;;;1.77;0.50;;;;;;;26.11;59.25;100775.97;10283841;28;20098;-70
2023/09/02 11:02:15;;;;;;;0.90;0.20;;;;;;;26.41;58.78;100774.41;10280281;28;20119;-69
2023/09/02 11:07:25;;;;;;;0.50;0.30;;;;;;;26.82;58.26;100771.75;10282431;28;20046;-68
2023/09/02 11:12:27;;;;;;;1.33;0.17;;;;;;;27.08;57.59;100769.84;10282098;28;20078;-69
2023/09/02 11:17:29;;;;;;;0.65;0.22;;;;;;;27.13;57.38;100766.22;10281794;28;20370;-71
2023/09/02 11:22:46;;;;;;;0.50;0.20;;;;;;;27.15;57.08;100762.09;10294671;28;20093;-69
2023/09/02 11:27:47;;;;;;;1.27;0.20;;;;;;;27.21;56.86;100773.94;10282741;28;20118;-69
2023/09/02 11:32:50;;;;;;;0.57;0.20;;;;;;;27.45;55.75;100763.22;10279907;28;20066;-69
2023/09/02 11:37:51;;;;;;;0.20;0.15;;;;;;;27.46;56.03;100776.72;10276911;28;20043;-68
2023/09/02 11:42:55;;;;;;;0.77;0.20;;;;;;;27.52;54.83;100776.72;10284065;28;20126;-70
2023/09/02 11:47:57;;;;;;;0.50;0.20;;;;;;;27.69;54.55;100774.47;10284100;28;20078;-69
2023/09/02 11:52:58;;;;;;;0.73;0.10;;;;;;;27.99;54.10;100767.22;10290749;28;20290;-69
2023/09/02 11:58:06;;;;;;;0.40;0.10;;;;;;;28.24;53.07;100769.88;10283287;28;20047;-69
2023/09/02 12:03:08;;;;;;;0.30;0.10;;;;;;;28.45;52.54;100765.03;10280224;28;20106;-68
2023/09/02 12:08:10;;;;;;;0.85;0.10;;;;;;;28.78;51.60;100753.53;10280619;28;20098;-70
2023/09/02 12:13:13;;;;;;;0.10;0.10;;;;;;;28.93;51.68;100745.09;10283113;28;20114;-70
2023/09/02 12:18:15;;;;;;;0.73;0.10;;;;;;;29.18;50.67;100751.56;10282221;28;20058;-69
2023/09/02 12:23:17;;;;;;;1.33;0.10;;;;;;;29.33;50.27;100751.41;10281362;28;20154;-70
2023/09/02 12:28:19;;;;;;;0.25;0.10;;;;;;;29.60;48.56;100752.78;10286387;28;20252;-70
2023/09/02 12:33:20;;;;;;;0.15;0.03;;;;;;;29.93;48.22;100753.81;10286845;28;20052;-68
2023/09/02 12:38:22;;;;;;;0.00;0.00;;;;;;;30.33;47.20;100765.50;10281622;28;20568;-69
2023/09/02 12:43:26;;;;;;;0.10;0.00;;;;;;;30.84;45.93;100761.16;10279907;28;20047;-69
2023/09/02 12:48:29;;;;;;;0.08;0.00;;;;;;;31.26;44.11;100764.94;10286515;28;20054;-69
2023/09/02 12:53:30;;;;;;;0.55;0.10;;;;;;;30.59;44.37;100774.31;10284051;28;20315;-69
2023/09/02 12:58:32;;;;;;;0.30;0.10;;;;;;;30.42;43.91;100772.03;10284465;28;20118;-70
2023/09/02 13:03:33;;;;;;;0.00;0.00;;;;;;;30.37;43.81;100777.69;10293319;28;20346;-71
2023/09/02 13:08:34;;;;;;;0.10;0.00;;;;;;;30.45;43.78;100773.38;10284564;28;20051;-70
2023/09/02 13:13:36;;;;;;;0.03;0.00;;;;;;;30.73;43.31;100768.84;10286180;28;20106;-70
2023/09/02 13:18:38;;;;;;;0.10;0.00;;;;;;;30.62;43.02;100761.78;10287838;28;20077;-68
2023/09/02 13:23:39;;;;;;;0.20;0.08;;;;;;;31.16;42.50;100760.38;10283615;28;20053;-68
2023/09/02 13:28:40;;;;;;;2.42;0.10;;;;;;;31.67;42.40;100769.72;10302169;28;20101;-67
2023/09/02 13:33:42;;;;;;;0.10;0.10;;;;;;;31.85;41.68;100767.97;10286110;28;20051;-70
2023/09/02 13:38:44;;;;;;;0.10;0.03;;;;;;;31.89;41.85;100773.75;10303110;28;20093;-69
2023/09/02 13:43:45;;;;;;;0.30;0.10;;;;;;;31.75;42.26;100770.97;10288152;28;20047;-69
2023/09/02 13:48:47;;;;;;;0.20;0.10;;;;;;;32.19;41.27;100775.94;10281149;28;20070;-69
2023/09/02 13:53:48;;;;;;;0.08;0.00;;;;;;;32.30;40.62;100776.53;10290814;28;20323;-70
2023/09/02 13:58:51;;;;;;;0.10;0.10;;;;;;;32.74;39.28;100763.84;10279585;28;20050;-69
2023/09/02 14:03:52;;;;;;;2.25;0.10;;;;;;;33.10;39.00;100773.31;10282436;28;20251;-70
2023/09/02 14:08:54;;;;;;;0.10;0.00;;;;;;;33.19;38.80;100775.00;10284729;28;20050;-70
2023/09/02 14:13:55;;;;;;;0.13;0.10;;;;;;;33.56;38.01;100780.44;10288008;28;20067;-70
2023/09/02 14:18:57;;;;;;;0.80;0.10;;;;;;;34.00;37.38;100789.00;10287689;28;20105;-66
2023/09/02 14:23:58;;;;;;;0.00;0.00;;;;;;;35.27;34.85;100775.81;10288629;28;20207;-69
2023/09/02 14:29:00;;;;;;;2.20;0.10;;;;;;;37.02;32.30;100781.19;10280078;28;20102;-68
2023/09/02 14:34:02;;;;;;;1.10;0.10;;;;;;;37.76;30.29;100767.38;10280637;28;20292;-68
2023/09/02 14:39:03;;;;;;;0.22;0.10;;;;;;;38.08;29.54;100771.25;10292445;28;20062;-69
2023/09/02 14:44:04;;;;;;;0.20;0.10;;;;;;;38.74;28.81;100782.44;10284329;28;20131;-71
2023/09/02 14:49:06;;;;;;;0.50;0.00;;;;;;;38.33;28.81;100779.59;10277703;28;20077;-70
2023/09/02 14:54:09;;;;;;;0.10;0.10;;;;;;;37.67;29.82;100772.28;10290743;28;20519;-70
2023/09/02 14:59:13;;;;;;;0.10;0.00;;;;;;;36.17;31.11;100767.56;10278909;28;20054;-70
2023/09/02 15:04:17;;;;;;;0.57;0.10;;;;;;;34.68;33.08;100765.19;10294383;28;20126;-70
2023/09/02 15:09:30;;;;;;;0.45;0.00;;;;;;;33.56;34.18;100760.94;10285054;28;20074;-70
2023/09/02 15:14:34;;;;;;;0.30;0.10;;;;;;;33.43;34.74;100759.88;10285494;28;20058;-70
2023/09/02 15:19:35;;;;;;;0.10;0.10;;;;;;;33.46;34.75;100759.25;10286356;28;20115;-69
2023/09/02 15:24:37;;;;;;;0.40;0.10;;;;;;;33.29;35.04;100775.88;10284967;28;20062;-71
2023/09/02 15:29:38;;;;;;;0.45;0.10;;;;;;;33.18;35.00;100772.53;10282280;28;20259;-69
2023/09/02 15:34:49;;;;;;;0.10;0.10;;;;;;;33.10;34.96;100771.34;10280041;28;20418;-71
2023/09/02 15:39:54;;;;;;;0.15;0.10;;;;;;;32.84;36.40;100768.34;10283350;28;20209;-72
2023/09/02 15:44:55;;;;;;;0.23;0.10;;;;;;;32.60;36.15;100774.19;10283392;28;20117;-70
2023/09/02 15:49:56;;;;;;;0.17;0.10;;;;;;;32.15;37.06;100774.91;10279559;28;20057;-68
2023/09/02 15:54:58;;;;;;;0.20;0.10;;;;;;;31.86;36.91;100777.97;10279668;28;20047;-70
2023/09/02 15:59:59;;;;;;;1.40;0.20;;;;;;;31.52;38.06;100770.88;10287955;28;20224;-69
2023/09/02 16:05:01;;;;;;;0.93;0.30;;;;;;;31.17;38.40;100775.09;10283023;28;20411;-68
2023/09/02 16:10:02;;;;;;;0.85;0.28;;;;;;;30.83;38.70;100782.53;10279150;28;20090;-69
2023/09/02 16:15:05;;;;;;;0.50;0.20;;;;;;;30.51;39.44;100779.69;10287827;28;20110;-70
2023/09/02 16:20:10;;;;;;;1.48;0.20;;;;;;;30.17;39.79;100770.41;10286464;28;20047;-72
2023/09/02 16:25:11;;;;;;;0.77;0.40;;;;;;;29.77;40.18;100775.34;10287296;28;20340;-71
2023/09/02 16:30:13;;;;;;;0.68;0.30;;;;;;;29.51;41.52;100773.94;10288742;28;20275;-72
2023/09/02 16:35:19;;;;;;;0.50;0.32;;;;;;;29.34;41.45;100764.13;10287145;28;20391;-71
2023/09/02 16:40:20;;;;;;;1.55;0.50;;;;;;;29.14;41.70;100764.31;10289535;28;20039;-71
2023/09/02 16:45:26;;;;;;;2.30;0.73;;;;;;;28.87;42.92;100749.84;10291212;28;20058;-70
2023/09/02 16:50:28;;;;;;;1.13;0.50;;;;;;;28.73;44.17;100750.78;10292205;28;20051;-71
2023/09/02 16:55:31;;;;;;;1.38;0.38;;;;;;;28.56;44.36;100746.47;10296635;28;20146;-71
2023/09/02 17:00:34;;;;;;;1.17;0.30;;;;;;;28.54;44.71;100756.19;10285534;28;20347;-71
2023/09/02 17:05:41;;;;;;;0.70;0.20;;;;;;;28.52;45.29;100750.94;10289728;28;20094;-71
2023/09/02 17:10:42;;;;;;;2.45;0.30;;;;;;;28.44;45.64;100751.50;10287488;28;20062;-72
2023/09/02 17:15:43;;;;;;;2.80;0.40;;;;;;;28.39;46.00;100757.06;10286422;28;20058;-71
2023/09/02 17:20:45;;;;;;;0.88;0.20;;;;;;;28.34;46.23;100757.09;10301737;28;20043;-72
2023/09/02 17:25:48;;;;;;;2.42;0.82;;;;;;;28.24;46.58;100758.00;10298947;28;20111;-72
2023/09/02 17:31:05;;;;;;;1.77;0.40;;;;;;;28.07;47.47;100769.41;10280760;28;20307;-71
2023/09/02 17:36:07;;;;;;;1.08;0.35;;;;;;;27.91;47.15;100770.56;10292677;28;20235;-71
2023/09/02 17:41:08;;;;;;;1.20;0.60;;;;;;;27.69;48.27;100763.44;10284643;28;20070;-71
2023/09/02 17:46:10;;;;;;;0.70;0.52;;;;;;;27.52;49.06;100762.91;10289805;28;20368;-71
2023/09/02 17:51:11;;;;;;;1.80;0.50;;;;;;;27.30;49.49;100775.09;10284711;28;20054;-71
2023/09/02 17:56:13;;;;;;;2.45;0.80;;;;;;;27.09;49.39;100766.81;10286093;28;20114;-72
2023/09/02 18:01:14;;;;;;;1.83;0.77;;;;;;;26.89;50.65;100769.53;10292115;28;20050;-70
2023/09/02 18:06:15;;;;;;;1.00;0.70;;;;;;;26.63;51.58;100768.69;10286718;28;20070;-71
2023/09/02 18:11:17;;;;;;;1.20;0.70;;;;;;;26.38;52.55;100772.19;10280775;28;20049;-70
2023/09/02 18:16:18;;;;;;;1.67;0.77;;;;;;;26.13;53.55;100790.28;10281400;28;20111;-71
2023/09/02 18:21:20;;;;;;;2.33;0.50;;;;;;;25.71;54.60;100800.25;10283675;28;20081;-69
2023/09/02 18:26:21;;;;;;;1.30;1.00;;;;;;;25.54;55.24;100794.06;10284714;28;20046;-71
2023/09/02 18:31:23;;;;;;;1.50;1.02;;;;;;;25.46;54.43;100811.09;10282812;28;20103;-69
2023/09/02 18:36:25;;;;;;;1.65;0.60;;;;;;;25.30;55.09;100812.91;10284574;28;20053;-70
2023/09/02 18:41:26;;;;;;;2.35;0.40;;;;;;;25.09;55.89;100809.91;10282072;28;20331;-70
2023/09/02 18:46:28;;;;;;;3.63;0.80;;;;;;;24.68;56.66;100817.78;10286467;28;20055;-69
2023/09/02 18:51:29;;;;;;;7.90;5.55;;;;;;;24.45;57.00;100826.31;10278967;28;20342;-69
2023/09/02 18:56:32;;;;;;;4.53;2.58;;;;;;;24.20;57.84;100838.63;10283484;28;20109;-69
2023/09/02 19:01:33;;;;;;;4.43;2.75;;;;;;;24.03;58.56;100848.81;10283076;28;20216;-70
2023/09/02 19:06:35;;;;;;;1.58;1.15;;;;;;;23.78;59.50;100857.53;10284525;28;20070;-69
2023/09/02 19:11:39;;;;;;;1.40;0.93;;;;;;;23.70;59.63;100864.25;10282049;28;20529;-69
2023/09/02 19:16:40;;;;;;;3.88;0.70;;;;;;;23.55;60.48;100867.56;10282379;28;20351;-68
2023/09/02 19:21:42;;;;;;;1.70;0.50;;;;;;;23.41;60.83;100871.75;10283531;28;20090;-70
2023/09/02 19:26:43;;;;;;;3.40;1.05;;;;;;;23.44;60.49;100888.53;10276545;28;20058;-70
2023/09/02 19:31:45;;;;;;;2.65;1.92;;;;;;;23.34;60.70;100891.94;10286398;28;20054;-72
2023/09/02 19:36:47;;;;;;;3.97;1.90;;;;;;;23.33;60.73;100892.19;10286640;28;20069;-71
2023/09/02 19:41:51;;;;;;;3.35;2.08;;;;;;;23.23;60.81;100905.72;10282076;28;20340;-71
2023/09/02 19:46:52;;;;;;;13.57;9.02;;;;;;;23.07;61.52;100908.19;10292638;28;20059;-70
2023/09/02 19:51:54;;;;;;;5.78;3.38;;;;;;;22.91;61.83;100904.28;10308163;28;20126;-70
2023/09/02 19:56:58;;;;;;;19.88;15.20;;;;;;;22.90;61.71;100915.47;10284066;28;20122;-72
2023/09/02 20:01:59;;;;;;;10.30;8.63;;;;;;;22.77;62.25;100914.69;10293425;28;20082;-70
2023/09/02 20:07:01;;;;;;;7.25;5.95;;;;;;;22.71;62.32;100915.69;10288546;28;20046;-71
2023/09/02 20:12:05;;;;;;;3.67;2.95;;;;;;;22.66;62.65;100934.75;10288259;28;20471;-70
2023/09/02 20:17:07;;;;;;;2.13;1.55;;;;;;;22.56;62.66;100940.84;10297781;28;20100;-70
2023/09/02 20:22:09;;;;;;;4.78;3.58;;;;;;;22.45;63.24;100955.38;10288574;28;20138;-71
2023/09/02 20:27:11;;;;;;;6.63;3.22;;;;;;;22.12;63.99;100956.00;10288919;28;20086;-71
2023/09/02 20:32:13;;;;;;;13.32;6.22;;;;;;;22.06;64.16;100957.78;10288708;28;20043;-69
2023/09/02 20:37:14;;;;;;;5.90;2.05;;;;;;;22.06;63.89;100960.50;10286618;28;20133;-69
2023/09/02 20:42:16;;;;;;;2.08;0.88;;;;;;;22.01;64.54;100954.91;10291852;28;20051;-73
2023/09/02 20:47:17;;;;;;;1.30;1.02;;;;;;;21.91;64.57;100951.91;10290369;28;20174;-70
2023/09/02 20:52:18;;;;;;;10.82;5.10;;;;;;;21.64;64.82;100960.56;10287645;28;20111;-72
2023/09/02 20:57:21;;;;;;;4.85;3.83;;;;;;;21.46;65.38;100958.72;10282910;28;20062;-70
2023/09/02 21:02:22;;;;;;;4.03;1.50;;;;;;;21.22;65.91;100962.44;10287368;28;20114;-70
2023/09/02 21:07:23;;;;;;;5.40;2.30;;;;;;;21.24;66.05;100960.28;10293183;28;20302;-71
2023/09/02 21:12:25;;;;;;;8.27;4.20;;;;;;;21.13;66.22;100964.63;10284754;28;20062;-71
2023/09/02 21:17:26;;;;;;;2.03;1.02;;;;;;;21.01;66.08;100967.34;10287099;28;20110;-71
2023/09/02 21:22:28;;;;;;;1.85;1.42;;;;;;;20.87;66.87;100983.03;10281987;28;20162;-70
2023/09/02 21:27:29;;;;;;;3.25;1.42;;;;;;;20.72;66.76;100971.69;10288373;28;20054;-70
2023/09/02 21:32:30;;;;;;;1.08;0.70;;;;;;;20.62;67.05;100972.22;10286145;28;20343;-70
2023/09/02 21:37:32;;;;;;;3.17;0.82;;;;;;;20.61;67.29;100967.78;10292174;28;20239;-70
2023/09/02 21:42:33;;;;;;;3.33;1.08;;;;;;;20.57;67.55;100982.94;10285142;28;20035;-70
2023/09/02 21:47:35;;;;;;;1.00;0.80;;;;;;;20.65;67.35;100979.09;10290060;28;20110;-69
2023/09/02 21:52:36;;;;;;;2.90;0.82;;;;;;;20.75;66.79;100973.94;10283781;28;20124;-70
2023/09/02 21:57:38;;;;;;;6.70;1.00;;;;;;;20.74;66.62;100964.91;10288097;28;20039;-70
2023/09/02 22:02:39;;;;;;;5.25;0.60;;;;;;;20.74;66.91;100983.22;10281155;28;20114;-70
2023/09/02 22:07:41;;;;;;;3.25;0.60;;;;;;;20.74;66.53;100978.56;10283875;28;20054;-71
2023/09/02 22:12:45;;;;;;;1.55;0.52;;;;;;;20.70;67.04;100976.53;10285518;28;20098;-71
2023/09/02 22:17:47;;;;;;;3.15;0.73;;;;;;;20.64;66.59;100981.00;10289062;28;20111;-71
2023/09/02 22:22:48;;;;;;;1.70;0.60;;;;;;;20.63;66.87;100981.22;10285123;28;20115;-71
2023/09/02 22:27:50;;;;;;;2.47;0.63;;;;;;;20.58;66.99;100984.63;10285076;28;20055;-70
2023/09/02 22:32:51;;;;;;;1.00;0.90;;;;;;;20.55;67.05;100985.88;10282689;28;20122;-70
2023/09/02 22:37:52;;;;;;;2.67;0.80;;;;;;;20.44;67.38;100996.72;10284665;28;20054;-70
2023/09/02 22:42:54;;;;;;;4.60;0.80;;;;;;;20.41;67.38;101004.31;10286738;28;20058;-71
2023/09/02 22:47:58;;;;;;;4.72;0.82;;;;;;;20.34;67.23;100989.91;10284332;28;20050;-71
2023/09/02 22:53:05;;;;;;;3.03;0.80;;;;;;;20.31;67.61;101005.91;10285268;28;20067;-70
2023/09/02 22:58:08;;;;;;;3.00;0.98;;;;;;;20.25;67.40;101013.09;10285844;28;20102;-70
2023/09/02 23:03:10;;;;;;;4.50;0.68;;;;;;;20.14;67.99;101025.59;10281986;28;20370;-70
2023/09/02 23:08:11;;;;;;;1.88;0.75;;;;;;;20.11;68.04;101045.13;10296514;28;20308;-71